Webcam Webcam


Neerslagradar rain snow radar


Onweerradar thunder radar


Lokaal brand risico
local fire danger

Weerstations in de omgeving:

Monster

Poeldijk 1

Poeldijk 2

Hoek van Holland

Loosduinen

Maasland


Het weer levert geen direct gevaar op.    Er zijn geen waarschuwingen afgegeven voor Zuid Holland.

METAR rapporten vliegvelden

  
EHRD - Rotterdam Airpor, Netherlands
Afstand tot: OZO 20km
Gewijzigd: 27-07-2017 02:25
Grotendeels bewolkt
Grotendeels bewolkt  
 Wind vanuit het WZW
Wind: WZW 24 km/h
Temperatuur:  18°C
Dauwpunt:  17°C
Vochtigheid:  94%
Barometer:  1005 hPa
Bewolking:  Grotendeels bewolkt
Zicht:  10 km
Bewolking:  Licht bewolkt 366 m
Gedeeltelijk bewolkt 457 m
Grotendeels bewolkt 549 m
2017/07/27 00:25 EHRD 270025Z AUTO 24013KT 210V270 9999 FEW012 SCT015 BKN018 18/17 Q1005 TEMPO 5000 -DZRA BKN008
EHAM - Amsterdam/Schiph, Netherlands
Afstand tot: NO 54km
Gewijzigd: 27-07-2017 02:25
Licht bewolkt
Licht bewolkt  
 Wind vanuit het ZW
Wind: ZW 30 km/h
Temperatuur:  18°C
Dauwpunt:  17°C
Vochtigheid:  94%
Barometer:  1005 hPa
Bewolking:  Licht bewolkt
Zicht:  10 km
Bewolking:  Licht bewolkt 488 m
2017/07/27 00:25 EHAM 270025Z 23016KT 9999 FEW016 18/17 Q1005 TEMPO 6000 -DZRA BKN012
EHGR - Gilze-Rijen Rnla, Netherlands
Afstand tot: ZO 70km
Gewijzigd: 27-07-2017 02:34
Bewolking
Bewolking  
 Wind vanuit het ZW
Wind: ZW 11 km/h
Temperatuur:  18°C
Dauwpunt:  17°C
Vochtigheid:  94%
Barometer:  1006 hPa
Bewolking:  Bewolking
Zicht:  10 km
Bewolking:  Gedeeltelijk bewolkt 366 m
Grotendeels bewolkt 488 m
Bewolking 579 m
2017/07/27 00:34 EHGR 270034Z AUTO 22006KT 190V250 9999 SCT012 BKN016 OVC019 18/17 Q1006 GRN
EBAW - Antwerp/Deurne, Belgium
Afstand tot: ZZO 91km
Gewijzigd: 27-07-2017 02:20
Grotendeels bewolkt
Grotendeels bewolkt  
 Wind vanuit het ZW
Wind: ZW 13 km/h
Temperatuur:  19°C
Dauwpunt:  17°C
Vochtigheid:  88%
Barometer:  1007 hPa
Bewolking:  Grotendeels bewolkt
Zicht:  10 km
Bewolking:  Gedeeltelijk bewolkt 396 m
Grotendeels bewolkt 457 m
Grotendeels bewolkt 823 m
2017/07/27 00:20 EBAW 270020Z AUTO 22007KT 9999 // SCT013/// BKN015/// BKN027/// 19/17 Q1007

Script ontwikkeld door  Saratoga-weather.org Aangepast voor de template door  Weerstation Leuven

U vindt ons ook hier:


Het Weer Actueel

European Weather Network

AWEKAS

Weather Underground

Citizen Weather Observer Program (CWOP)

HAMweather, WeatherForYou, PWS Weather

Weathercloud

Het weer nu

Twitter

Facebook

Apparatuur in gebruik:


Weerstation
Davis Vantage Pro2 Wireless & UV

Weerprogramma
WeatherLink

Onweerradar
Boltek LD-250

Onweerprogramma
NexStorm

Weercomputer
Shuttle D6100XA

Onweercomputer
Asus Eee Box B202

Davis Vantage Pro2 Wireless & UV

WeatherLink

Boltek LD-250

NexStorm

Shuttle D6100XA

Asus Eee Box B202